createdAt,value
2022-11-30T00:01:13.703Z,102178.00
2022-11-30T00:03:41.614Z,102170.97
2022-11-30T00:06:11.311Z,102176.50
2022-11-30T00:08:39.247Z,102177.53
2022-11-30T00:11:11.282Z,102176.69
2022-11-30T00:13:39.232Z,102173.00
2022-11-30T00:16:08.097Z,102173.16
2022-11-30T00:18:37.835Z,102177.53
2022-11-30T00:21:08.618Z,102176.69
2022-11-30T00:23:38.073Z,102170.50
2022-11-30T00:26:07.728Z,102176.69
2022-11-30T00:28:37.592Z,102175.66
2022-11-30T00:31:08.157Z,102179.38
2022-11-30T00:33:38.512Z,102182.25
2022-11-30T00:36:08.562Z,102175.03
2022-11-30T00:38:36.853Z,102176.69
2022-11-30T00:41:04.726Z,102176.03
2022-11-30T00:43:32.781Z,102178.53
2022-11-30T00:46:00.652Z,102171.03
2022-11-30T00:48:28.404Z,102191.31
2022-11-30T00:50:57.752Z,102178.91
2022-11-30T00:53:25.518Z,102180.94
2022-11-30T00:55:53.251Z,102186.31
2022-11-30T00:58:20.968Z,102190.00
2022-11-30T01:00:48.707Z,102185.47
2022-11-30T01:03:16.422Z,102190.19
2022-11-30T01:05:44.226Z,102186.69
2022-11-30T01:08:14.046Z,102194.72
2022-11-30T01:10:43.284Z,102193.06
2022-11-30T01:13:12.742Z,102199.44
2022-11-30T01:15:42.947Z,102197.59
2022-11-30T01:18:11.213Z,102197.78
2022-11-30T01:20:42.362Z,102191.56
2022-11-30T01:23:10.187Z,102197.13
2022-11-30T01:25:39.448Z,102204.34
2022-11-30T01:28:07.073Z,102199.16
2022-11-30T01:30:34.950Z,102201.84
2022-11-30T01:33:03.668Z,102200.81
2022-11-30T01:35:31.392Z,102200.81
2022-11-30T01:37:59.080Z,102198.97
2022-11-30T01:40:26.953Z,102195.28
2022-11-30T01:42:55.953Z,102195.47
2022-11-30T01:45:23.945Z,102200.63
2022-11-30T01:47:56.560Z,102201.66
2022-11-30T01:50:29.416Z,102195.47
2022-11-30T01:52:58.805Z,102200.81
2022-11-30T01:55:30.597Z,102202.66
2022-11-30T01:58:05.171Z,102198.97
2022-11-30T02:00:33.390Z,102204.69
2022-11-30T02:03:04.093Z,102212.38
2022-11-30T02:05:34.121Z,102213.22
2022-11-30T02:08:02.336Z,102209.72
2022-11-30T02:10:33.245Z,102212.22
2022-11-30T02:13:38.580Z,102214.06
2022-11-30T02:16:16.747Z,102213.03
2022-11-30T02:18:55.082Z,102215.72
2022-11-30T02:21:27.902Z,102217.56
2022-11-30T02:24:14.733Z,102216.56
2022-11-30T02:27:16.051Z,102224.78
2022-11-30T02:29:50.367Z,102212.38
2022-11-30T02:32:22.940Z,102220.44
2022-11-30T02:34:52.197Z,102225.81
2022-11-30T02:37:22.317Z,102222.28
2022-11-30T02:39:49.981Z,102225.81
2022-11-30T02:42:18.077Z,102223.13
2022-11-30T02:44:50.183Z,102217.75
2022-11-30T02:47:24.837Z,102223.97
2022-11-30T02:49:57.448Z,102230.16
2022-11-30T02:52:27.521Z,102230.16
2022-11-30T02:54:59.619Z,102229.31
2022-11-30T02:57:27.251Z,102228.50
2022-11-30T02:59:56.657Z,102233.03
2022-11-30T03:02:24.416Z,102225.81
2022-11-30T03:04:52.138Z,102228.50
2022-11-30T03:07:19.999Z,102231.19
2022-11-30T03:09:47.702Z,102229.31
2022-11-30T03:12:15.353Z,102222.28
2022-11-30T03:14:43.036Z,102223.13
2022-11-30T03:17:12.128Z,102228.50
2022-11-30T03:19:39.779Z,102231.19
2022-11-30T03:22:07.625Z,102226.81
2022-11-30T03:24:35.327Z,102230.34
2022-11-30T03:27:03.334Z,102230.34
2022-11-30T03:29:31.024Z,102239.22
2022-11-30T03:31:58.689Z,102235.72
2022-11-30T03:34:28.577Z,102226.81
2022-11-30T03:36:56.675Z,102230.34
2022-11-30T03:39:24.547Z,102222.00
2022-11-30T03:41:52.241Z,102229.50
2022-11-30T03:44:20.449Z,102234.88
2022-11-30T03:46:48.159Z,102221.00
2022-11-30T03:49:15.873Z,102233.22
2022-11-30T03:51:44.959Z,102234.88
2022-11-30T03:54:12.605Z,102237.56
2022-11-30T03:56:40.322Z,102235.06
2022-11-30T03:59:07.998Z,102235.72
2022-11-30T04:01:36.931Z,102233.22
2022-11-30T04:04:04.803Z,102232.19
2022-11-30T04:06:32.524Z,102235.72
2022-11-30T04:09:01.549Z,102233.03
2022-11-30T04:11:29.445Z,102234.03
2022-11-30T04:13:57.084Z,102238.56
2022-11-30T04:16:24.860Z,102238.56
2022-11-30T04:18:52.604Z,102234.22
2022-11-30T04:21:20.345Z,102236.06
2022-11-30T04:23:48.007Z,102237.75
2022-11-30T04:26:18.161Z,102230.72
2022-11-30T04:28:45.884Z,102236.06
2022-11-30T04:31:14.250Z,102232.38
2022-11-30T04:33:42.085Z,102234.22
2022-11-30T04:36:19.966Z,102236.91
2022-11-30T04:38:48.211Z,102239.59
2022-11-30T04:41:17.332Z,102237.75
2022-11-30T04:43:45.035Z,102244.97
2022-11-30T04:46:12.769Z,102240.59
2022-11-30T04:48:40.589Z,102241.63
2022-11-30T04:51:09.773Z,102244.31
2022-11-30T04:53:39.017Z,102247.00
2022-11-30T04:56:07.977Z,102239.94
2022-11-30T04:58:37.160Z,102247.81
2022-11-30T05:01:04.881Z,102249.66
2022-11-30T05:03:32.545Z,102244.47
2022-11-30T05:06:00.237Z,102241.81
2022-11-30T05:08:27.958Z,102244.47
2022-11-30T05:10:56.457Z,102242.81
2022-11-30T05:13:25.973Z,102253.56
2022-11-30T05:15:55.301Z,102249.84
2022-11-30T05:18:23.092Z,102244.47
2022-11-30T05:20:51.868Z,102248.00
2022-11-30T05:23:20.125Z,102249.84
2022-11-30T05:25:48.454Z,102248.72
2022-11-30T05:28:16.786Z,102251.88
2022-11-30T05:30:44.740Z,102251.88
2022-11-30T05:33:13.811Z,102263.44
2022-11-30T05:35:41.450Z,102259.75
2022-11-30T05:38:09.114Z,102257.91
2022-11-30T05:40:36.874Z,102260.59
2022-11-30T05:43:06.029Z,102261.41
2022-11-30T05:45:33.733Z,102265.94
2022-11-30T05:48:01.410Z,102267.81
2022-11-30T05:50:30.650Z,102267.81
2022-11-30T05:53:00.978Z,102269.66
2022-11-30T05:55:31.017Z,102270.66
2022-11-30T05:57:58.811Z,102276.88
2022-11-30T06:00:26.601Z,102280.38
2022-11-30T06:02:58.261Z,102281.41
2022-11-30T06:05:26.437Z,102275.38
2022-11-30T06:07:56.258Z,102282.59
2022-11-30T06:10:25.281Z,102291.28
2022-11-30T06:12:53.651Z,102292.13
2022-11-30T06:15:21.366Z,102289.44
2022-11-30T06:17:49.000Z,102287.78
2022-11-30T06:20:16.770Z,102287.78
2022-11-30T06:22:46.720Z,102280.75
2022-11-30T06:25:15.991Z,102287.97
2022-11-30T06:27:43.977Z,102286.28
2022-11-30T06:30:13.181Z,102288.78
2022-11-30T06:32:40.849Z,102287.97
2022-11-30T06:35:09.229Z,102287.97
2022-11-30T06:37:37.035Z,102287.97
2022-11-30T06:40:07.617Z,102281.75
2022-11-30T06:42:37.899Z,102288.13
2022-11-30T06:45:06.943Z,102296.19
2022-11-30T06:47:34.603Z,102293.50
2022-11-30T06:50:02.295Z,102288.13
2022-11-30T06:52:32.203Z,102312.28
2022-11-30T06:54:59.905Z,102305.25
2022-11-30T06:57:28.845Z,102304.41
2022-11-30T06:59:58.352Z,102313.31
2022-11-30T07:02:26.133Z,102299.41
2022-11-30T07:04:53.864Z,102315.16
2022-11-30T07:07:22.201Z,102306.25
2022-11-30T07:09:50.686Z,102314.31
2022-11-30T07:12:18.370Z,102314.31
2022-11-30T07:14:46.454Z,102308.28
2022-11-30T07:17:15.683Z,102312.34
2022-11-30T07:19:43.408Z,102323.91
2022-11-30T07:22:11.070Z,102322.06
2022-11-30T07:24:56.101Z,102325.56
2022-11-30T07:27:24.049Z,102326.41
2022-11-30T07:29:52.463Z,102331.78
2022-11-30T07:32:21.513Z,102337.81
2022-11-30T07:34:49.462Z,102338.63
2022-11-30T07:37:17.791Z,102343.00
2022-11-30T07:39:45.531Z,102345.03
2022-11-30T07:42:13.226Z,102343.16
2022-11-30T07:44:41.395Z,102341.03
2022-11-30T07:47:09.108Z,102350.38
2022-11-30T07:49:39.717Z,102352.22
2022-11-30T07:52:08.327Z,102351.22
2022-11-30T07:54:36.153Z,102345.41
2022-11-30T07:57:03.840Z,102353.06
2022-11-30T07:59:31.535Z,102357.59
2022-11-30T08:02:00.471Z,102359.28
2022-11-30T08:04:28.333Z,102356.59
2022-11-30T08:06:57.426Z,102357.59
2022-11-30T08:09:25.125Z,102363.97
2022-11-30T08:11:52.850Z,102364.81
2022-11-30T08:14:20.640Z,102361.28
2022-11-30T08:16:49.048Z,102370.34
2022-11-30T08:19:17.047Z,102373.03
2022-11-30T08:21:44.797Z,102368.69
2022-11-30T08:24:14.551Z,102371.53
2022-11-30T08:26:42.709Z,102369.69
2022-11-30T08:29:10.951Z,102366.19
2022-11-30T08:31:39.362Z,102374.72
2022-11-30T08:34:08.857Z,102384.78
2022-11-30T08:36:36.702Z,102375.72
2022-11-30T08:39:05.975Z,102375.72
2022-11-30T08:41:39.045Z,102384.38
2022-11-30T08:44:07.252Z,102390.00
2022-11-30T08:46:52.412Z,102391.09
2022-11-30T08:49:23.606Z,102398.31
2022-11-30T08:52:16.463Z,102391.63
2022-11-30T08:54:46.204Z,102403.09
2022-11-30T08:57:16.413Z,102406.91
2022-11-30T08:59:44.287Z,102394.31
2022-11-30T09:02:13.333Z,102396.63
2022-11-30T09:04:41.107Z,102404.41
2022-11-30T09:07:09.513Z,102396.06
2022-11-30T09:09:37.765Z,102398.28
2022-11-30T09:12:05.736Z,102402.53
2022-11-30T09:14:34.769Z,102399.66
2022-11-30T09:17:02.465Z,102406.34
2022-11-30T09:19:30.387Z,102412.38
2022-11-30T09:21:58.060Z,102402.63
2022-11-30T09:24:25.721Z,102408.84
2022-11-30T09:26:56.251Z,102399.19
2022-11-30T09:29:24.284Z,102413.31
2022-11-30T09:31:53.413Z,102420.28
2022-11-30T09:34:21.251Z,102401.25
2022-11-30T09:36:48.988Z,102414.22
2022-11-30T09:39:16.704Z,102417.53
2022-11-30T09:42:22.941Z,102415.16
2022-11-30T09:44:59.466Z,102416.06
2022-11-30T09:47:43.650Z,102418.63
2022-11-30T09:50:14.968Z,102417.47
2022-11-30T09:52:46.108Z,102418.84
2022-11-30T09:55:22.076Z,102422.25
2022-11-30T09:57:53.839Z,102420.75
2022-11-30T10:00:23.386Z,102419.25
2022-11-30T10:02:54.399Z,102412.56
2022-11-30T10:05:24.606Z,102414.78
2022-11-30T10:08:07.739Z,102420.16
2022-11-30T10:10:41.178Z,102418.66
2022-11-30T10:13:27.867Z,102413.66
2022-11-30T10:16:09.774Z,102410.13
2022-11-30T10:18:48.970Z,102415.03
2022-11-30T10:21:29.606Z,102409.66
2022-11-30T10:24:12.062Z,102402.44
2022-11-30T10:26:46.596Z,102409.66
2022-11-30T10:29:19.786Z,102399.28
2022-11-30T10:31:49.656Z,102400.28
2022-11-30T10:34:23.964Z,102398.44
2022-11-30T10:36:57.355Z,102397.13
2022-11-30T10:39:31.701Z,102399.97
2022-11-30T10:42:05.673Z,102400.16
2022-11-30T10:44:39.955Z,102401.00
2022-11-30T10:47:15.329Z,102396.47
2022-11-30T10:49:49.300Z,102393.78
2022-11-30T10:52:23.818Z,102392.09
2022-11-30T10:54:59.141Z,102386.91
2022-11-30T10:57:32.402Z,102378.19
2022-11-30T11:00:05.215Z,102386.25
2022-11-30T11:02:39.998Z,102380.59
2022-11-30T11:05:25.965Z,102386.78
2022-11-30T11:08:02.831Z,102381.41
2022-11-30T11:10:36.842Z,102381.25
2022-11-30T11:13:06.135Z,102379.56
2022-11-30T11:15:35.807Z,102376.06
2022-11-30T11:18:25.321Z,102378.38
2022-11-30T11:21:06.840Z,102385.59
2022-11-30T11:23:37.378Z,102382.25
2022-11-30T11:26:06.413Z,102378.75
2022-11-30T11:28:36.366Z,102388.63
2022-11-30T11:31:18.655Z,102376.41
2022-11-30T11:33:52.493Z,102381.41
2022-11-30T11:36:27.374Z,102381.25
2022-11-30T11:38:55.148Z,102376.88
2022-11-30T11:41:27.832Z,102379.41
2022-11-30T11:44:03.062Z,102377.38
2022-11-30T11:46:31.540Z,102385.13
2022-11-30T11:49:02.603Z,102382.78
2022-11-30T11:51:34.066Z,102377.59
2022-11-30T11:54:05.733Z,102382.31
2022-11-30T11:56:35.970Z,102385.81
2022-11-30T11:59:14.163Z,102384.81
2022-11-30T12:01:49.728Z,102375.94
2022-11-30T12:04:38.916Z,102380.63
2022-11-30T12:07:18.017Z,102375.94
2022-11-30T12:09:58.254Z,102370.75
2022-11-30T12:12:26.007Z,102373.44
2022-11-30T12:14:54.865Z,102376.75
2022-11-30T12:17:36.246Z,102373.25
2022-11-30T12:20:15.029Z,102376.09
2022-11-30T12:22:59.649Z,102376.75
2022-11-30T12:25:29.648Z,102373.25
2022-11-30T12:28:15.054Z,102375.22
2022-11-30T12:30:53.928Z,102384.75
2022-11-30T12:33:39.063Z,102381.72
2022-11-30T12:36:15.094Z,102376.19
2022-11-30T12:38:50.237Z,102377.53
2022-11-30T12:41:33.066Z,102382.09
2022-11-30T12:44:13.078Z,102378.56
2022-11-30T12:46:46.492Z,102385.59
2022-11-30T12:49:27.794Z,102378.38
2022-11-30T12:52:03.543Z,102387.81
2022-11-30T12:54:41.231Z,102373.59
2022-11-30T12:57:17.099Z,102383.09
2022-11-30T12:59:53.270Z,102377.38
2022-11-30T13:02:46.863Z,102385.41
2022-11-30T13:05:21.293Z,102381.91
2022-11-30T13:07:54.761Z,102387.81
2022-11-30T13:10:30.273Z,102385.78
2022-11-30T13:13:01.185Z,102383.94
2022-11-30T13:15:31.792Z,102396.63
2022-11-30T13:18:01.813Z,102386.06
2022-11-30T13:20:38.937Z,102394.78
2022-11-30T13:23:13.293Z,102403.19
2022-11-30T13:28:58.684Z,102400.88
2022-11-30T13:31:29.633Z,102391.81
2022-11-30T13:34:01.248Z,102392.47
2022-11-30T13:36:35.864Z,102396.63
2022-11-30T13:39:31.483Z,102395.81
2022-11-30T13:42:37.986Z,102404.16
2022-11-30T13:45:28.569Z,102399.38
2022-11-30T13:47:57.644Z,102379.09
2022-11-30T13:50:34.069Z,102390.84
2022-11-30T13:53:20.364Z,102390.38
2022-11-30T13:56:02.215Z,102396.03
2022-11-30T13:58:32.317Z,102392.91
2022-11-30T14:01:25.401Z,102394.22
2022-11-30T14:04:30.157Z,102400.97
2022-11-30T14:06:59.414Z,102392.53
2022-11-30T14:09:59.699Z,102397.34
2022-11-30T14:13:01.001Z,102400.94
2022-11-30T14:15:55.570Z,102405.19
2022-11-30T14:18:28.518Z,102418.13
2022-11-30T14:21:01.012Z,102417.47
2022-11-30T14:23:32.668Z,102420.50
2022-11-30T14:26:09.099Z,102423.38
2022-11-30T14:28:42.380Z,102417.53
2022-11-30T14:31:17.110Z,102426.59
2022-11-30T14:33:50.321Z,102425.28
2022-11-30T14:36:20.220Z,102421.13
2022-11-30T14:38:47.888Z,102424.81
2022-11-30T14:41:23.851Z,102429.34
2022-11-30T14:44:02.341Z,102435.56
2022-11-30T14:46:33.673Z,102435.91
2022-11-30T14:49:13.357Z,102436.94
2022-11-30T14:51:42.358Z,102431.72
2022-11-30T14:54:21.405Z,102433.94
2022-11-30T14:56:51.413Z,102431.44
2022-11-30T14:59:32.214Z,102434.97
2022-11-30T15:02:03.418Z,102432.63
2022-11-30T15:04:31.899Z,102436.50
2022-11-30T15:07:00.308Z,102433.81
2022-11-30T15:09:31.562Z,102426.94
2022-11-30T15:11:59.977Z,102425.94
2022-11-30T15:14:27.764Z,102434.84
2022-11-30T15:16:58.201Z,102430.66
2022-11-30T15:19:30.138Z,102427.13
2022-11-30T15:22:07.810Z,102420.94
2022-11-30T15:24:36.193Z,102433.34
2022-11-30T15:27:11.111Z,102436.84
2022-11-30T15:29:43.665Z,102434.84
2022-11-30T15:32:18.295Z,102440.38
2022-11-30T15:34:56.111Z,102435.00
2022-11-30T15:37:30.768Z,102432.16
2022-11-30T15:40:00.904Z,102428.81
2022-11-30T15:42:31.402Z,102427.13
2022-11-30T15:45:14.937Z,102433.34
2022-11-30T15:47:42.730Z,102430.47
2022-11-30T15:50:43.111Z,102429.81
2022-11-30T15:53:31.992Z,102433.34
2022-11-30T15:56:02.362Z,102434.53
2022-11-30T15:58:33.709Z,102432.06
2022-11-30T16:01:05.394Z,102429.44
2022-11-30T16:03:34.743Z,102444.66
2022-11-30T16:06:05.934Z,102450.88
2022-11-30T16:08:34.117Z,102448.34
2022-11-30T16:11:07.474Z,102450.19
2022-11-30T16:13:35.795Z,102448.19
2022-11-30T16:16:03.655Z,102442.31
2022-11-30T16:18:32.087Z,102456.06
2022-11-30T16:21:02.521Z,102456.53
2022-11-30T16:23:35.417Z,102454.38
2022-11-30T16:26:03.168Z,102460.22
2022-11-30T16:28:30.830Z,102463.03
2022-11-30T16:31:01.576Z,102460.66
2022-11-30T16:33:29.237Z,102465.38
2022-11-30T16:35:59.361Z,102465.22
2022-11-30T16:38:27.944Z,102459.66
2022-11-30T16:41:10.711Z,102463.34
2022-11-30T16:43:40.321Z,102471.41
2022-11-30T16:46:10.675Z,102468.72
2022-11-30T16:48:38.617Z,102475.94
2022-11-30T16:51:06.934Z,102477.97
2022-11-30T16:53:34.680Z,102474.28
2022-11-30T16:56:03.720Z,102479.28
2022-11-30T16:58:31.429Z,102486.34
2022-11-30T17:01:00.281Z,102481.97
2022-11-30T17:03:31.072Z,102483.00
2022-11-30T17:05:58.781Z,102478.63
2022-11-30T17:08:26.446Z,102481.84
2022-11-30T17:10:55.845Z,102497.59
2022-11-30T17:13:24.898Z,102501.31
2022-11-30T17:15:52.579Z,102500.63
2022-11-30T17:18:20.272Z,102498.78
2022-11-30T17:20:47.997Z,102497.94
2022-11-30T17:23:15.783Z,102499.63
2022-11-30T17:25:43.613Z,102500.81
2022-11-30T17:28:11.365Z,102488.09
2022-11-30T17:30:40.594Z,102488.22
2022-11-30T17:33:08.272Z,102491.09
2022-11-30T17:35:39.259Z,102502.00
2022-11-30T17:38:07.036Z,102503.97
2022-11-30T17:40:35.366Z,102497.84
2022-11-30T17:43:03.148Z,102497.59
2022-11-30T17:45:30.928Z,102498.03
2022-11-30T17:48:00.521Z,102505.78
2022-11-30T17:50:28.212Z,102501.69
2022-11-30T17:52:55.916Z,102500.88
2022-11-30T17:55:23.599Z,102506.06
2022-11-30T17:57:51.318Z,102509.22
2022-11-30T18:00:20.313Z,102500.44
2022-11-30T18:02:51.006Z,102512.06
2022-11-30T18:05:20.989Z,102504.88
2022-11-30T18:07:48.965Z,102503.88
2022-11-30T18:10:16.827Z,102493.38
2022-11-30T18:12:44.725Z,102510.47
2022-11-30T18:15:12.636Z,102510.47
2022-11-30T18:17:40.371Z,102500.44
2022-11-30T18:20:09.171Z,102513.53
2022-11-30T18:22:38.201Z,102520.00
2022-11-30T18:25:06.457Z,102509.69
2022-11-30T18:27:34.157Z,102513.53
2022-11-30T18:30:05.996Z,102518.53
2022-11-30T18:32:37.189Z,102519.94
2022-11-30T18:35:05.387Z,102520.19
2022-11-30T18:37:33.878Z,102537.78
2022-11-30T18:40:03.414Z,102540.09
2022-11-30T18:42:31.107Z,102540.19
2022-11-30T18:44:58.780Z,102525.66
2022-11-30T18:47:26.425Z,102539.59
2022-11-30T18:49:54.235Z,102537.00
2022-11-30T18:52:22.068Z,102538.31
2022-11-30T18:54:49.973Z,102535.53
2022-11-30T18:57:19.237Z,102533.41
2022-11-30T18:59:49.813Z,102537.56
2022-11-30T19:02:21.607Z,102543.50
2022-11-30T19:04:49.587Z,102546.50
2022-11-30T19:07:17.537Z,102554.84
2022-11-30T19:09:46.028Z,102549.91
2022-11-30T19:12:13.706Z,102554.31
2022-11-30T19:14:45.231Z,102545.47
2022-11-30T19:17:13.220Z,102552.22
2022-11-30T19:19:41.036Z,102551.94
2022-11-30T19:22:08.764Z,102537.44
2022-11-30T19:24:36.462Z,102547.38
2022-11-30T19:27:04.213Z,102550.59
2022-11-30T19:29:31.909Z,102554.63
2022-11-30T19:32:00.962Z,102553.28
2022-11-30T19:34:28.623Z,102551.78
2022-11-30T19:36:56.298Z,102554.16
2022-11-30T19:39:23.941Z,102541.63
2022-11-30T19:41:51.654Z,102550.81
2022-11-30T19:44:19.444Z,102559.41
2022-11-30T19:46:47.234Z,102555.09
2022-11-30T19:49:16.301Z,102560.47
2022-11-30T19:51:44.178Z,102565.84
2022-11-30T19:54:11.901Z,102560.81
2022-11-30T19:56:41.822Z,102563.50
2022-11-30T19:59:09.673Z,102565.72
2022-11-30T20:01:37.560Z,102567.72
2022-11-30T20:04:05.963Z,102575.78
2022-11-30T20:06:37.518Z,102578.66
2022-11-30T20:09:07.380Z,102579.66
2022-11-30T20:11:35.624Z,102572.28
2022-11-30T20:14:03.656Z,102567.94
2022-11-30T20:16:31.417Z,102574.31
2022-11-30T20:19:01.699Z,102572.47
2022-11-30T20:21:31.039Z,102578.84
2022-11-30T20:24:01.545Z,102586.91
2022-11-30T20:26:31.557Z,102585.06
2022-11-30T20:29:00.848Z,102580.53
2022-11-30T20:31:29.792Z,102582.53
2022-11-30T20:33:57.553Z,102575.69
2022-11-30T20:36:25.385Z,102575.69
2022-11-30T20:38:53.455Z,102575.84
2022-11-30T20:41:24.541Z,102576.50
2022-11-30T20:43:53.105Z,102585.56
2022-11-30T20:46:23.429Z,102578.19
2022-11-30T20:48:51.729Z,102581.03
2022-11-30T20:51:36.599Z,102591.78
2022-11-30T20:54:07.126Z,102588.59
2022-11-30T20:56:37.638Z,102587.78
2022-11-30T20:59:06.919Z,102592.31
2022-11-30T21:01:34.981Z,102595.81
2022-11-30T21:04:02.889Z,102587.59
2022-11-30T21:06:30.930Z,102584.06
2022-11-30T21:08:59.266Z,102588.44
2022-11-30T21:11:28.187Z,102591.13
2022-11-30T21:13:58.430Z,102592.97
2022-11-30T21:16:29.036Z,102595.00
2022-11-30T21:18:58.550Z,102599.69
2022-11-30T21:21:28.507Z,102604.41
2022-11-30T21:23:57.817Z,102569.56
2022-11-30T21:26:28.717Z,102591.50
2022-11-30T21:29:02.284Z,102598.72
2022-11-30T21:31:30.775Z,102600.72
2022-11-30T21:33:59.021Z,102602.75
2022-11-30T21:36:26.821Z,102598.22
2022-11-30T21:39:02.654Z,102597.19
2022-11-30T21:41:32.086Z,102598.72
2022-11-30T21:44:01.115Z,102592.16
2022-11-30T21:46:28.884Z,102598.19
2022-11-30T21:48:56.600Z,102594.66
2022-11-30T21:51:26.050Z,102601.72
2022-11-30T21:53:55.181Z,102593.00
2022-11-30T21:56:24.875Z,102595.69
2022-11-30T21:58:53.057Z,102584.63
2022-11-30T22:01:25.165Z,102592.31
2022-11-30T22:03:53.976Z,102588.13
2022-11-30T22:06:21.751Z,102592.66
2022-11-30T22:08:49.477Z,102591.66
2022-11-30T22:11:18.691Z,102589.66
2022-11-30T22:13:50.008Z,102594.34
2022-11-30T22:16:18.501Z,102596.38
2022-11-30T22:18:48.147Z,102601.56
2022-11-30T22:21:17.747Z,102584.47
2022-11-30T22:23:47.122Z,102602.41
2022-11-30T22:26:17.585Z,102603.41
2022-11-30T22:28:48.317Z,102604.91
2022-11-30T22:31:18.797Z,102595.00
2022-11-30T22:33:48.422Z,102605.75
2022-11-30T22:36:19.032Z,102608.44
2022-11-30T22:38:47.376Z,102607.59
2022-11-30T22:41:17.626Z,102602.41
2022-11-30T22:43:47.082Z,102613.13
2022-11-30T22:46:16.818Z,102612.47
2022-11-30T22:48:45.330Z,102614.31
2022-11-30T22:51:16.381Z,102609.13
2022-11-30T22:53:44.839Z,102617.34
2022-11-30T22:56:14.311Z,102616.69
2022-11-30T22:58:43.106Z,102611.47
2022-11-30T23:01:12.158Z,102607.13
2022-11-30T23:03:41.192Z,102619.53
2022-11-30T23:06:15.321Z,102615.34
2022-11-30T23:08:43.995Z,102611.81
2022-11-30T23:11:14.274Z,102614.34
2022-11-30T23:13:43.041Z,102618.19
2022-11-30T23:16:11.796Z,102608.47
2022-11-30T23:18:41.201Z,102611.31
2022-11-30T23:21:11.926Z,102617.53
2022-11-30T23:23:41.120Z,102610.31
2022-11-30T23:26:10.601Z,102610.50
2022-11-30T23:28:40.884Z,102605.97
2022-11-30T23:31:10.250Z,102605.28
2022-11-30T23:33:57.836Z,102599.94
2022-11-30T23:36:25.725Z,102602.78
2022-11-30T23:38:58.498Z,102596.06
2022-11-30T23:41:27.096Z,102603.28
2022-11-30T23:43:55.170Z,102605.97
2022-11-30T23:46:23.352Z,102588.38
2022-11-30T23:48:53.460Z,102611.50
2022-11-30T23:51:21.201Z,102608.81
2022-11-30T23:53:48.976Z,102613.00
2022-11-30T23:56:19.717Z,102609.50
2022-11-30T23:58:47.660Z,102605.81
